Rollo, Illinois
Current Conditions -  °F | °C
As of 10:15 PM on Monday 22 Dec 2014 (Local Time) from KVYS Reporting Station
Haze Haze  
Wind Chill:   Ceiling: 300
Heat Index:   Visibility: 3mi
Dew Point:   Wind: 13mph
Humidity: 97%   Direction: 110°ESE
Pressure: 29.54"   Gusts: NA
Location:  41.5869°N, 88.887°W
Report Text: KVYS 230415Z AUTO 11011KT 3SM BR OVC003 06/05 A2954 RMK AO2 T00570053
Loading
Personal Weather Stations






























Interactive Weather Map New forecast layout! Learn more

10-Day Weather Forecast

Advertisements
Track Severe Weather on mobile